Time;durP1;ratioP1;P1;durP2;ratioP2;P2;SDS_P1;SDS_P2;PMS_P1;PMS_P2;Temp;Humidity;BMP_temperature;BMP_pressure;BME280_temperature;BME280_humidity;BME280_pressure;Samples;Min_cycle;Max_cycle;Signal;HPM_P1;HPM_P2
2023/06/11 00:00:51;;;;;;;22.23;14.50;;;;;;;;;;5032144;28;20053;-79
2023/06/11 00:03:21;;;;;;;19.70;13.95;;;;;;;;;;5031222;28;20064;-79
2023/06/11 00:05:48;;;;;;;19.67;13.82;;;;;;;;;;5033015;28;20048;-79
2023/06/11 00:08:15;;;;;;;22.95;14.55;;;;;;;;;;5032623;28;20045;-78
2023/06/11 00:10:41;;;;;;;18.65;13.48;;;;;;;;;;5029909;28;20130;-79
2023/06/11 00:13:11;;;;;;;23.73;12.73;;;;;;;;;;5030831;28;20042;-80
2023/06/11 00:15:40;;;;;;;23.25;12.73;;;;;;;;;;5029845;28;20101;-78
2023/06/11 00:18:07;;;;;;;17.30;12.77;;;;;;;;;;5030715;28;20046;-79
2023/06/11 00:20:42;;;;;;;22.90;13.32;;;;;;;;;;5034195;28;20518;-81
2023/06/11 00:23:09;;;;;;;19.48;13.30;;;;;;;;;;5033874;28;20045;-80
2023/06/11 00:25:35;;;;;;;23.25;13.52;;;;;;;;;;5035209;28;20057;-80
2023/06/11 00:28:02;;;;;;;20.92;13.75;;;;;;;;;;5035071;28;20042;-81
2023/06/11 00:30:29;;;;;;;19.58;13.13;;;;;;;;;;5033998;28;20057;-80
2023/06/11 00:32:55;;;;;;;21.08;12.65;;;;;;;;;;5034215;28;20057;-80
2023/06/11 00:35:22;;;;;;;21.45;12.73;;;;;;;;;;5033009;28;20458;-80
2023/06/11 00:37:50;;;;;;;17.45;12.32;;;;;;;;;;5034287;28;20054;-79
2023/06/11 00:40:16;;;;;;;19.42;12.63;;;;;;;;;;5033059;28;20045;-79
2023/06/11 00:42:45;;;;;;;19.27;12.50;;;;;;;;;;5016999;28;20057;-79
2023/06/11 00:45:12;;;;;;;15.77;11.68;;;;;;;;;;5033435;28;20119;-78
2023/06/11 00:47:40;;;;;;;23.50;12.77;;;;;;;;;;5032912;28;20091;-79
2023/06/11 00:50:08;;;;;;;19.63;11.80;;;;;;;;;;5030433;28;20045;-79
2023/06/11 00:52:35;;;;;;;17.35;11.27;;;;;;;;;;5035473;28;20099;-79
2023/06/11 00:55:02;;;;;;;17.27;11.43;;;;;;;;;;5032370;28;20509;-79
2023/06/11 00:57:29;;;;;;;18.33;11.38;;;;;;;;;;5030814;28;20069;-79
2023/06/11 00:59:55;;;;;;;17.35;12.02;;;;;;;;;;5029608;28;20478;-78
2023/06/11 01:02:25;;;;;;;17.83;11.55;;;;;;;;;;5029590;28;20042;-79
2023/06/11 01:04:56;;;;;;;16.83;10.38;;;;;;;;;;5029259;28;20112;-79
2023/06/11 01:07:26;;;;;;;15.50;10.15;;;;;;;;;;5031705;28;20059;-79
2023/06/11 01:09:53;;;;;;;18.70;10.10;;;;;;;;;;5029919;28;20077;-78
2023/06/11 01:12:20;;;;;;;16.73;9.57;;;;;;;;;;5029309;28;20476;-80
2023/06/11 01:14:47;;;;;;;15.77;9.80;;;;;;;;;;5027567;28;20549;-79
2023/06/11 01:17:17;;;;;;;16.60;10.30;;;;;;;;;;5026434;28;20128;-78
2023/06/11 01:20:03;;;;;;;13.35;9.13;;;;;;;;;;5008935;28;20700;-78
2023/06/11 01:22:35;;;;;;;13.32;10.25;;;;;;;;;;5030222;28;20033;-78
2023/06/11 01:25:05;;;;;;;12.75;8.90;;;;;;;;;;5031073;28;20046;-77
2023/06/11 01:27:40;;;;;;;16.17;10.35;;;;;;;;;;5029201;28;20535;-78
2023/06/11 01:30:09;;;;;;;15.98;9.73;;;;;;;;;;5032630;28;20491;-79
2023/06/11 01:32:36;;;;;;;19.25;9.35;;;;;;;;;;5029788;28;20144;-79
2023/06/11 01:35:06;;;;;;;14.73;8.73;;;;;;;;;;5029142;28;20037;-78
2023/06/11 01:37:45;;;;;;;14.77;8.38;;;;;;;;;;5031188;28;20112;-79
2023/06/11 01:40:14;;;;;;;18.85;9.15;;;;;;;;;;5030514;28;20049;-78
2023/06/11 01:42:48;;;;;;;19.37;9.23;;;;;;;;;;5031728;28;20042;-79
2023/06/11 01:45:18;;;;;;;14.10;8.73;;;;;;;;;;5014154;28;20036;-78
2023/06/11 01:47:45;;;;;;;17.20;8.80;;;;;;;;;;5032511;28;20037;-77
2023/06/11 01:50:12;;;;;;;13.85;8.77;;;;;;;;;;5014369;28;20480;-77
2023/06/11 01:52:38;;;;;;;14.63;8.27;;;;;;;;;;5023673;28;20041;-78
2023/06/11 01:55:06;;;;;;;12.77;8.60;;;;;;;;;;5031107;28;20041;-79
2023/06/11 01:57:36;;;;;;;11.57;8.18;;;;;;;;;;5033627;28;20041;-78
2023/06/11 02:00:05;;;;;;;12.45;7.97;;;;;;;;;;5029585;28;20595;-79
2023/06/11 02:02:42;;;;;;;13.18;7.65;;;;;;;;;;5031816;28;20038;-79
2023/06/11 02:05:10;;;;;;;11.85;7.63;;;;;;;;;;5028722;28;20069;-79
2023/06/11 02:07:37;;;;;;;10.38;6.95;;;;;;;;;;5031502;28;20516;-79
2023/06/11 02:10:04;;;;;;;17.60;8.15;;;;;;;;;;5030722;28;20151;-78
2023/06/11 02:12:31;;;;;;;13.48;7.70;;;;;;;;;;5014231;28;20041;-79
2023/06/11 02:14:58;;;;;;;14.25;7.88;;;;;;;;;;5031403;28;20042;-78
2023/06/11 02:17:25;;;;;;;11.85;7.55;;;;;;;;;;5012719;28;20067;-79
2023/06/11 02:19:52;;;;;;;15.20;7.53;;;;;;;;;;5028666;28;20101;-78
2023/06/11 02:22:18;;;;;;;9.90;6.65;;;;;;;;;;5028747;28;20041;-79
2023/06/11 02:24:45;;;;;;;16.50;6.90;;;;;;;;;;5029233;28;20041;-79
2023/06/11 02:27:12;;;;;;;14.20;7.40;;;;;;;;;;5029819;28;20484;-78
2023/06/11 02:29:39;;;;;;;12.63;7.80;;;;;;;;;;5060790;28;20489;-78
2023/06/11 02:32:06;;;;;;;12.70;7.20;;;;;;;;;;5029645;28;20602;-79
2023/06/11 02:34:34;;;;;;;16.10;7.13;;;;;;;;;;5029051;28;20065;-79
2023/06/11 02:37:00;;;;;;;12.00;7.10;;;;;;;;;;5031351;28;20041;-79
2023/06/11 02:39:27;;;;;;;13.13;7.15;;;;;;;;;;5034853;28;20404;-78
2023/06/11 02:41:54;;;;;;;18.13;6.80;;;;;;;;;;5032048;28;20111;-79
2023/06/11 02:44:21;;;;;;;9.43;6.22;;;;;;;;;;5037880;28;20045;-78
2023/06/11 02:46:48;;;;;;;10.57;6.47;;;;;;;;;;5037630;28;20046;-79
2023/06/11 02:49:14;;;;;;;12.30;6.13;;;;;;;;;;5071591;28;20053;-78
2023/06/11 02:51:41;;;;;;;12.98;6.47;;;;;;;;;;5074874;28;20055;-78
2023/06/11 02:54:08;;;;;;;9.90;6.00;;;;;;;;;;5038780;28;20045;-78
2023/06/11 02:56:35;;;;;;;11.52;6.25;;;;;;;;;;5036962;28;20072;-80
2023/06/11 02:59:01;;;;;;;8.52;5.30;;;;;;;;;;5037945;28;20049;-78
2023/06/11 03:01:28;;;;;;;12.77;6.07;;;;;;;;;;5038691;28;20122;-78
2023/06/11 03:03:55;;;;;;;11.25;6.18;;;;;;;;;;5040789;28;20057;-79
2023/06/11 03:06:26;;;;;;;12.88;6.40;;;;;;;;;;5038170;28;20072;-81
2023/06/11 03:08:59;;;;;;;9.73;6.47;;;;;;;;;;5032484;28;20041;-80
2023/06/11 03:11:29;;;;;;;;;;;;;;;;;;5033627;28;20046;-80
2023/06/11 03:13:55;;;;;;;11.40;5.93;;;;;;;;;;5032305;28;19935;-80
2023/06/11 03:16:22;;;;;;;9.48;5.53;;;;;;;;;;5032820;28;20597;-79
2023/06/11 03:18:49;;;;;;;14.60;6.22;;;;;;;;;;5034016;28;20092;-79
2023/06/11 03:21:15;;;;;;;14.30;6.70;;;;;;;;;;5032902;28;20049;-79
2023/06/11 03:23:42;;;;;;;10.60;6.53;;;;;;;;;;5033639;28;20049;-80
2023/06/11 03:26:09;;;;;;;13.40;5.35;;;;;;;;;;5032503;28;20048;-78
2023/06/11 03:28:41;;;;;;;8.65;5.60;;;;;;;;;;5032133;28;20489;-78
2023/06/11 03:31:08;;;;;;;10.55;5.43;;;;;;;;;;5029686;28;20056;-79
2023/06/11 03:33:34;;;;;;;9.18;4.93;;;;;;;;;;5030769;28;20053;-78
2023/06/11 03:36:02;;;;;;;11.85;5.00;;;;;;;;;;5053642;28;20045;-79
2023/06/11 03:38:28;;;;;;;9.20;5.47;;;;;;;;;;5030264;28;20132;-78
2023/06/11 03:40:56;;;;;;;14.80;5.80;;;;;;;;;;5017436;28;20046;-79
2023/06/11 03:43:26;;;;;;;14.07;5.97;;;;;;;;;;5011641;28;20682;-80
2023/06/11 03:45:53;;;;;;;8.80;5.72;;;;;;;;;;5047080;28;20033;-80
2023/06/11 03:48:20;;;;;;;15.63;6.05;;;;;;;;;;5012623;28;20046;-81
2023/06/11 03:50:49;;;;;;;13.13;5.90;;;;;;;;;;5012021;28;20117;-78
2023/06/11 03:53:15;;;;;;;9.07;5.50;;;;;;;;;;5036916;28;20045;-79
2023/06/11 03:55:43;;;;;;;16.83;6.10;;;;;;;;;;5033128;28;20041;-79
2023/06/11 03:58:10;;;;;;;11.13;5.72;;;;;;;;;;5032401;28;20139;-81
2023/06/11 04:00:37;;;;;;;10.90;6.43;;;;;;;;;;5031029;28;20099;-77
2023/06/11 04:03:04;;;;;;;9.75;5.88;;;;;;;;;;5028414;28;20045;-81
2023/06/11 04:05:36;;;;;;;8.18;5.90;;;;;;;;;;5027932;28;20045;-80
2023/06/11 04:08:03;;;;;;;9.80;5.97;;;;;;;;;;5030282;28;20035;-79
2023/06/11 04:10:31;;;;;;;8.52;5.75;;;;;;;;;;5029728;28;20048;-80
2023/06/11 04:12:58;;;;;;;8.52;5.65;;;;;;;;;;5029695;28;20153;-81
2023/06/11 04:15:25;;;;;;;11.40;6.15;;;;;;;;;;5013982;28;20091;-80
2023/06/11 04:17:53;;;;;;;9.93;5.72;;;;;;;;;;5029839;28;20107;-79
2023/06/11 04:20:20;;;;;;;11.85;6.55;;;;;;;;;;5029300;28;20125;-79
2023/06/11 04:22:47;;;;;;;11.73;6.65;;;;;;;;;;5014077;28;20164;-79
2023/06/11 04:25:16;;;;;;;11.23;6.05;;;;;;;;;;5029474;28;20049;-78
2023/06/11 04:27:52;;;;;;;15.38;6.63;;;;;;;;;;5011295;28;20490;-80
2023/06/11 04:30:20;;;;;;;11.27;6.28;;;;;;;;;;5028982;28;20132;-80
2023/06/11 04:32:54;;;;;;;11.40;6.65;;;;;;;;;;5028754;28;20111;-79
2023/06/11 04:35:24;;;;;;;14.73;7.07;;;;;;;;;;5029693;28;20060;-79
2023/06/11 04:37:52;;;;;;;14.00;6.78;;;;;;;;;;5030237;28;20045;-78
2023/06/11 04:40:23;;;;;;;14.23;6.80;;;;;;;;;;5011131;28;20052;-79
2023/06/11 04:42:50;;;;;;;11.48;6.00;;;;;;;;;;5028898;28;20041;-78
2023/06/11 04:45:18;;;;;;;8.65;5.95;;;;;;;;;;5012274;28;20060;-79
2023/06/11 04:47:46;;;;;;;15.90;6.75;;;;;;;;;;5028989;28;20459;-79
2023/06/11 04:50:20;;;;;;;13.75;6.43;;;;;;;;;;5028308;28;20072;-78
2023/06/11 04:52:51;;;;;;;11.45;5.70;;;;;;;;;;5032986;28;20044;-78
2023/06/11 04:55:24;;;;;;;16.77;6.25;;;;;;;;;;5028223;28;20080;-78
2023/06/11 04:57:54;;;;;;;11.82;6.30;;;;;;;;;;5027780;28;20042;-79
2023/06/11 05:00:22;;;;;;;9.90;4.88;;;;;;;;;;5028067;28;20055;-79
2023/06/11 05:02:49;;;;;;;12.95;6.18;;;;;;;;;;5028473;28;20072;-77
2023/06/11 05:05:16;;;;;;;12.15;6.18;;;;;;;;;;5033509;28;20097;-78
2023/06/11 05:07:43;;;;;;;8.80;6.10;;;;;;;;;;5033635;28;20041;-77
2023/06/11 05:10:10;;;;;;;9.95;6.22;;;;;;;;;;5027997;28;20489;-79
2023/06/11 05:12:38;;;;;;;13.35;5.60;;;;;;;;;;5028473;28;20469;-78
2023/06/11 05:15:05;;;;;;;11.70;5.60;;;;;;;;;;5059003;28;20057;-80
2023/06/11 05:17:35;;;;;;;10.55;6.00;;;;;;;;;;5059195;28;20061;-79
2023/06/11 05:20:03;;;;;;;12.32;5.80;;;;;;;;;;5056113;28;20564;-78
2023/06/11 05:22:32;;;;;;;13.43;6.07;;;;;;;;;;5022724;28;20080;-79
2023/06/11 05:24:59;;;;;;;12.15;5.10;;;;;;;;;;5061631;28;20048;-77
2023/06/11 05:27:29;;;;;;;11.65;5.05;;;;;;;;;;5060925;28;20061;-79
2023/06/11 05:29:57;;;;;;;8.60;4.30;;;;;;;;;;5058700;28;20050;-79
2023/06/11 05:32:24;;;;;;;7.80;4.55;;;;;;;;;;5068151;28;20052;-79
2023/06/11 05:34:51;;;;;;;9.35;4.60;;;;;;;;;;5028780;28;20175;-80
2023/06/11 05:37:21;;;;;;;12.60;4.45;;;;;;;;;;5027883;28;20136;-79
2023/06/11 05:39:47;;;;;;;13.70;4.80;;;;;;;;;;5029104;28;20092;-79
2023/06/11 05:42:15;;;;;;;10.00;4.32;;;;;;;;;;5061700;28;20050;-79
2023/06/11 05:44:43;;;;;;;7.50;4.30;;;;;;;;;;5030111;28;20107;-78
2023/06/11 05:47:10;;;;;;;9.10;4.25;;;;;;;;;;5028936;28;20590;-79
2023/06/11 05:49:37;;;;;;;7.20;3.97;;;;;;;;;;5063296;28;20053;-79
2023/06/11 05:52:04;;;;;;;8.98;4.15;;;;;;;;;;5046669;28;20083;-79
2023/06/11 05:54:31;;;;;;;13.52;4.43;;;;;;;;;;5029845;28;20114;-79
2023/06/11 05:56:58;;;;;;;8.60;5.05;;;;;;;;;;5030087;28;20080;-79
2023/06/11 05:59:24;;;;;;;10.23;4.10;;;;;;;;;;5029570;28;20042;-79
2023/06/11 06:01:52;;;;;;;9.30;4.07;;;;;;;;;;5026468;28;20125;-78
2023/06/11 06:04:21;;;;;;;9.48;4.38;;;;;;;;;;5029293;28;20109;-80
2023/06/11 06:06:47;;;;;;;10.88;4.15;;;;;;;;;;5030163;28;20548;-81
2023/06/11 06:09:14;;;;;;;7.30;4.35;;;;;;;;;;5031085;28;20458;-78
2023/06/11 06:11:42;;;;;;;14.05;5.18;;;;;;;;;;5029943;28;20057;-79
2023/06/11 06:14:09;;;;;;;10.82;4.53;;;;;;;;;;5028603;28;20710;-80
2023/06/11 06:16:37;;;;;;;11.65;4.45;;;;;;;;;;5015273;28;20060;-79
2023/06/11 06:19:11;;;;;;;7.72;4.15;;;;;;;;;;5043455;28;20141;-78
2023/06/11 06:21:38;;;;;;;9.77;4.10;;;;;;;;;;5020160;28;20493;-79
2023/06/11 06:24:05;;;;;;;8.75;4.13;;;;;;;;;;5044007;28;20052;-78
2023/06/11 06:26:32;;;;;;;9.52;4.45;;;;;;;;;;5034720;28;20049;-79
2023/06/11 06:29:02;;;;;;;8.07;4.13;;;;;;;;;;5031714;28;20503;-78
2023/06/11 06:31:30;;;;;;;6.25;4.07;;;;;;;;;;5058168;28;20069;-79
2023/06/11 06:33:57;;;;;;;8.60;4.10;;;;;;;;;;5033500;28;20045;-78
2023/06/11 06:36:25;;;;;;;5.68;3.80;;;;;;;;;;5064332;28;20505;-79
2023/06/11 06:38:52;;;;;;;8.07;3.95;;;;;;;;;;5038612;28;20049;-78
2023/06/11 06:41:19;;;;;;;8.10;3.95;;;;;;;;;;5027520;28;20050;-79
2023/06/11 06:43:46;;;;;;;10.20;4.03;;;;;;;;;;5036904;28;20754;-79
2023/06/11 06:46:16;;;;;;;9.10;3.95;;;;;;;;;;5049472;28;20144;-78
2023/06/11 06:48:43;;;;;;;11.32;4.15;;;;;;;;;;5045643;28;20055;-79
2023/06/11 06:51:10;;;;;;;10.63;4.00;;;;;;;;;;5055451;28;20057;-79
2023/06/11 06:53:40;;;;;;;8.60;4.40;;;;;;;;;;5045011;28;20311;-79
2023/06/11 06:56:07;;;;;;;8.38;3.67;;;;;;;;;;5079288;28;20037;-78
2023/06/11 06:58:34;;;;;;;9.23;3.95;;;;;;;;;;5055651;28;20045;-79
2023/06/11 07:01:01;;;;;;;6.40;4.25;;;;;;;;;;5054483;28;20386;-79
2023/06/11 07:03:28;;;;;;;7.13;4.13;;;;;;;;;;5048914;28;20494;-78
2023/06/11 07:05:58;;;;;;;12.00;4.05;;;;;;;;;;5059636;28;20100;-77
2023/06/11 07:08:26;;;;;;;11.60;4.28;;;;;;;;;;5035112;28;20045;-79
2023/06/11 07:10:54;;;;;;;7.68;3.75;;;;;;;;;;5020248;28;20064;-79
2023/06/11 07:13:29;;;;;;;10.82;3.92;;;;;;;;;;5024677;28;20045;-78
2023/06/11 07:15:57;;;;;;;8.10;3.70;;;;;;;;;;5038082;28;20796;-79
2023/06/11 07:18:27;;;;;;;8.82;4.30;;;;;;;;;;5027013;28;20040;-79
2023/06/11 07:20:55;;;;;;;7.32;3.95;;;;;;;;;;5030290;28;20057;-78
2023/06/11 07:23:21;;;;;;;10.05;3.92;;;;;;;;;;5027630;28;20053;-79
2023/06/11 07:25:49;;;;;;;8.73;4.40;;;;;;;;;;5040852;28;20773;-79
2023/06/11 07:28:17;;;;;;;7.90;3.63;;;;;;;;;;5045466;28;20048;-79
2023/06/11 07:30:45;;;;;;;8.73;3.85;;;;;;;;;;5042070;28;20075;-79
2023/06/11 07:33:11;;;;;;;6.40;3.70;;;;;;;;;;5007511;28;20056;-78
2023/06/11 07:35:40;;;;;;;8.13;3.75;;;;;;;;;;5019919;28;20138;-79
2023/06/11 07:38:06;;;;;;;9.25;3.67;;;;;;;;;;5028676;28;20445;-79
2023/06/11 07:40:33;;;;;;;9.90;3.42;;;;;;;;;;5035042;28;20436;-77
2023/06/11 07:43:00;;;;;;;10.13;4.00;;;;;;;;;;5023512;28;20045;-78
2023/06/11 07:45:29;;;;;;;6.43;3.42;;;;;;;;;;5030365;28;20105;-78
2023/06/11 07:47:56;;;;;;;10.23;3.75;;;;;;;;;;5026058;28;20045;-78
2023/06/11 07:50:22;;;;;;;8.38;3.35;;;;;;;;;;5036806;28;20516;-79
2023/06/11 07:52:49;;;;;;;8.57;3.70;;;;;;;;;;5039868;28;20060;-80
2023/06/11 07:55:25;;;;;;;6.30;3.55;;;;;;;;;;5034989;28;20106;-79
2023/06/11 07:57:52;;;;;;;8.55;3.85;;;;;;;;;;5029281;28;20053;-79
2023/06/11 08:00:18;;;;;;;9.18;3.90;;;;;;;;;;5053177;28;20053;-79
2023/06/11 08:02:45;;;;;;;6.15;3.53;;;;;;;;;;5023365;28;20413;-79
2023/06/11 08:05:17;;;;;;;8.82;3.60;;;;;;;;;;5022151;28;20529;-78
2023/06/11 08:07:47;;;;;;;8.10;3.90;;;;;;;;;;5018300;28;20421;-79
2023/06/11 08:10:14;;;;;;;6.38;3.85;;;;;;;;;;5016918;28;20511;-79
2023/06/11 08:12:41;;;;;;;7.93;3.20;;;;;;;;;;5021019;28;20056;-78
2023/06/11 08:15:08;;;;;;;7.38;3.30;;;;;;;;;;5024643;28;20072;-78
2023/06/11 08:17:35;;;;;;;6.40;3.50;;;;;;;;;;5037050;28;20532;-78
2023/06/11 08:20:06;;;;;;;9.00;3.17;;;;;;;;;;5007000;28;20445;-79
2023/06/11 08:22:33;;;;;;;7.55;3.60;;;;;;;;;;5026871;28;20061;-78
2023/06/11 08:25:00;;;;;;;7.82;3.42;;;;;;;;;;5036971;28;20044;-79
2023/06/11 08:27:26;;;;;;;6.45;3.38;;;;;;;;;;5006475;28;20175;-78
2023/06/11 08:29:53;;;;;;;10.77;3.47;;;;;;;;;;5024583;28;20056;-79
2023/06/11 08:32:20;;;;;;;6.03;3.65;;;;;;;;;;5028043;28;20049;-77
2023/06/11 08:34:46;;;;;;;7.22;3.10;;;;;;;;;;5028824;28;20180;-78
2023/06/11 08:37:13;;;;;;;12.90;3.75;;;;;;;;;;5038070;28;20050;-77
2023/06/11 08:39:40;;;;;;;6.78;3.58;;;;;;;;;;5023106;28;20045;-78
2023/06/11 08:42:07;;;;;;;9.70;3.90;;;;;;;;;;5023403;28;20469;-78
2023/06/11 08:44:35;;;;;;;6.72;3.92;;;;;;;;;;5014953;28;20127;-80
2023/06/11 08:47:02;;;;;;;7.68;3.63;;;;;;;;;;5026348;28;20616;-80
2023/06/11 08:49:29;;;;;;;12.23;3.67;;;;;;;;;;5024344;28;20056;-78
2023/06/11 08:52:01;;;;;;;11.90;3.85;;;;;;;;;;5029166;28;20045;-80
2023/06/11 08:54:28;;;;;;;7.90;4.00;;;;;;;;;;5026654;28;20481;-79
2023/06/11 08:56:55;;;;;;;6.30;3.58;;;;;;;;;;5027305;28;20095;-79
2023/06/11 08:59:21;;;;;;;15.65;4.88;;;;;;;;;;5024965;28;20059;-78
2023/06/11 09:01:50;;;;;;;9.38;4.38;;;;;;;;;;5033879;28;20048;-80
2023/06/11 09:04:18;;;;;;;8.60;4.03;;;;;;;;;;5004356;28;20048;-79
2023/06/11 09:06:48;;;;;;;9.40;4.50;;;;;;;;;;5050155;28;20052;-78
2023/06/11 09:09:15;;;;;;;7.30;4.15;;;;;;;;;;5016445;28;20497;-78
2023/06/11 09:11:41;;;;;;;7.65;4.22;;;;;;;;;;5021098;28;20556;-78
2023/06/11 09:14:08;;;;;;;6.45;3.95;;;;;;;;;;5022059;28;20482;-78
2023/06/11 09:16:40;;;;;;;10.75;4.28;;;;;;;;;;5004738;28;20042;-78
2023/06/11 09:19:09;;;;;;;7.93;4.00;;;;;;;;;;5020221;28;20033;-76
2023/06/11 09:21:36;;;;;;;6.85;4.07;;;;;;;;;;5020727;28;20041;-79
2023/06/11 09:24:07;;;;;;;6.65;4.15;;;;;;;;;;5012479;28;20045;-78
2023/06/11 09:26:34;;;;;;;6.95;4.22;;;;;;;;;;5050236;28;20045;-78
2023/06/11 09:29:00;;;;;;;12.75;4.63;;;;;;;;;;5029093;28;20112;-79
2023/06/11 09:31:27;;;;;;;6.43;4.10;;;;;;;;;;5024492;28;20565;-79
2023/06/11 09:34:00;;;;;;;8.10;4.05;;;;;;;;;;5033348;28;20587;-78
2023/06/11 09:36:26;;;;;;;7.63;4.18;;;;;;;;;;5040629;28;20045;-78
2023/06/11 09:38:54;;;;;;;10.38;4.45;;;;;;;;;;5011968;28;20050;-78
2023/06/11 09:41:21;;;;;;;5.97;4.10;;;;;;;;;;5012218;28;20054;-77
2023/06/11 09:43:52;;;;;;;12.60;4.38;;;;;;;;;;5022512;28;20410;-80
2023/06/11 09:46:19;;;;;;;7.85;3.88;;;;;;;;;;5021776;28;20080;-76
2023/06/11 09:48:46;;;;;;;7.10;4.05;;;;;;;;;;5029977;28;20064;-77
2023/06/11 09:51:13;;;;;;;6.60;3.55;;;;;;;;;;5020872;28;20397;-77
2023/06/11 09:53:40;;;;;;;6.45;3.75;;;;;;;;;;5027621;28;20045;-79
2023/06/11 09:56:08;;;;;;;6.22;3.70;;;;;;;;;;5022206;28;20134;-77
2023/06/11 09:58:38;;;;;;;7.03;4.15;;;;;;;;;;5032249;28;20465;-79
2023/06/11 10:01:05;;;;;;;6.03;3.65;;;;;;;;;;5022812;28;20081;-79
2023/06/11 10:03:36;;;;;;;11.77;3.78;;;;;;;;;;5023154;28;20057;-77
2023/06/11 10:06:08;;;;;;;5.63;3.35;;;;;;;;;;5033462;28;20521;-78
2023/06/11 10:08:35;;;;;;;7.78;3.65;;;;;;;;;;5024338;28;20114;-79
2023/06/11 10:11:03;;;;;;;5.72;4.03;;;;;;;;;;5023030;28;20087;-79
2023/06/11 10:13:30;;;;;;;6.75;3.70;;;;;;;;;;5039135;28;20053;-78
2023/06/11 10:16:06;;;;;;;8.88;3.75;;;;;;;;;;5043828;28;20079;-78
2023/06/11 10:18:36;;;;;;;5.82;3.60;;;;;;;;;;5018594;28;20071;-78
2023/06/11 10:21:03;;;;;;;10.23;3.83;;;;;;;;;;5016059;28;20076;-79
2023/06/11 10:23:35;;;;;;;7.20;3.78;;;;;;;;;;5032367;28;20048;-79
2023/06/11 10:26:02;;;;;;;7.60;3.72;;;;;;;;;;5041772;28;20042;-78
2023/06/11 10:28:41;;;;;;;9.57;3.95;;;;;;;;;;5030065;28;20088;-79
2023/06/11 10:31:07;;;;;;;8.50;3.83;;;;;;;;;;5013393;28;20049;-77
2023/06/11 10:33:40;;;;;;;6.93;3.88;;;;;;;;;;5024963;28;20069;-77
2023/06/11 10:36:07;;;;;;;7.53;3.90;;;;;;;;;;5033950;28;20099;-77
2023/06/11 10:38:42;;;;;;;7.93;4.03;;;;;;;;;;5030078;28;20046;-77
2023/06/11 10:41:12;;;;;;;6.28;4.00;;;;;;;;;;5019503;28;20501;-78
2023/06/11 10:43:40;;;;;;;4.22;3.50;;;;;;;;;;5042841;28;20132;-77
2023/06/11 10:46:11;;;;;;;4.53;3.78;;;;;;;;;;5021061;28;20053;-77
2023/06/11 10:48:48;;;;;;;8.30;3.90;;;;;;;;;;5025118;28;20174;-78
2023/06/11 10:51:17;;;;;;;7.78;3.78;;;;;;;;;;5036615;28;20045;-77
2023/06/11 10:53:43;;;;;;;6.57;3.67;;;;;;;;;;5027154;28;20067;-77
2023/06/11 10:56:12;;;;;;;6.07;3.75;;;;;;;;;;5028519;28;20460;-77
2023/06/11 10:58:40;;;;;;;9.50;3.67;;;;;;;;;;5028594;28;20034;-77
2023/06/11 11:01:07;;;;;;;5.28;3.60;;;;;;;;;;5024172;28;20481;-78
2023/06/11 11:03:34;;;;;;;5.63;3.80;;;;;;;;;;5028712;28;20270;-77
2023/06/11 11:06:01;;;;;;;6.55;3.60;;;;;;;;;;5027712;28;20073;-79
2023/06/11 11:08:28;;;;;;;7.15;3.47;;;;;;;;;;5029852;28;20041;-78
2023/06/11 11:10:56;;;;;;;10.32;3.88;;;;;;;;;;5027365;28;20127;-79
2023/06/11 11:13:22;;;;;;;5.32;3.70;;;;;;;;;;5027616;28;20522;-80
2023/06/11 11:15:51;;;;;;;8.63;3.50;;;;;;;;;;5029765;28;20045;-78
2023/06/11 11:18:18;;;;;;;7.70;3.90;;;;;;;;;;5028888;28;20073;-80
2023/06/11 11:20:45;;;;;;;7.15;3.53;;;;;;;;;;5049158;28;20088;-78
2023/06/11 11:23:11;;;;;;;6.38;3.63;;;;;;;;;;5049638;28;20061;-79
2023/06/11 11:25:38;;;;;;;7.13;3.30;;;;;;;;;;5021621;28;20460;-80
2023/06/11 11:28:05;;;;;;;10.32;3.53;;;;;;;;;;5055022;28;20045;-79
2023/06/11 11:30:32;;;;;;;7.03;3.47;;;;;;;;;;5029576;28;20061;-80
2023/06/11 11:32:59;;;;;;;7.22;3.50;;;;;;;;;;5048856;28;20045;-78
2023/06/11 11:35:28;;;;;;;5.35;3.58;;;;;;;;;;5063987;28;20068;-79
2023/06/11 11:37:55;;;;;;;8.98;4.07;;;;;;;;;;5030243;28;20041;-79
2023/06/11 11:40:22;;;;;;;7.82;3.90;;;;;;;;;;5029020;28;20053;-78
2023/06/11 11:42:56;;;;;;;7.50;3.45;;;;;;;;;;5043418;28;20117;-80
2023/06/11 11:45:32;;;;;;;6.10;3.70;;;;;;;;;;5045524;28;20040;-78
2023/06/11 11:47:59;;;;;;;7.50;3.80;;;;;;;;;;5044688;28;20056;-79
2023/06/11 11:50:34;;;;;;;6.10;3.28;;;;;;;;;;5048329;28;20041;-78
2023/06/11 11:53:05;;;;;;;6.53;3.50;;;;;;;;;;5015381;28;20053;-80
2023/06/11 11:55:33;;;;;;;6.07;3.50;;;;;;;;;;5020584;28;20068;-79
2023/06/11 11:58:20;;;;;;;5.85;3.60;;;;;;;;;;5056235;28;20057;-78
2023/06/11 12:00:53;;;;;;;6.30;3.78;;;;;;;;;;5051835;28;20578;-79
2023/06/11 12:03:21;;;;;;;4.93;3.25;;;;;;;;;;5060137;28;20552;-80
2023/06/11 12:05:58;;;;;;;9.98;3.60;;;;;;;;;;5036822;28;20060;-78
2023/06/11 12:08:26;;;;;;;4.80;3.45;;;;;;;;;;5033125;28;20045;-79
2023/06/11 12:10:52;;;;;;;8.57;3.40;;;;;;;;;;5036227;28;20666;-78
2023/06/11 12:13:19;;;;;;;5.55;3.53;;;;;;;;;;5031054;28;20131;-79
2023/06/11 12:15:47;;;;;;;6.75;3.40;;;;;;;;;;5025015;28;20053;-78
2023/06/11 12:18:14;;;;;;;9.23;3.50;;;;;;;;;;5033608;28;20056;-80
2023/06/11 12:20:41;;;;;;;7.72;3.97;;;;;;;;;;5037669;28;20117;-78
2023/06/11 12:23:08;;;;;;;6.20;3.45;;;;;;;;;;5027439;28;20083;-79
2023/06/11 12:25:35;;;;;;;5.10;3.28;;;;;;;;;;5033900;28;20644;-78
2023/06/11 12:28:02;;;;;;;6.28;3.70;;;;;;;;;;5033447;28;20053;-78
2023/06/11 12:30:30;;;;;;;5.25;3.30;;;;;;;;;;5035524;28;20065;-78
2023/06/11 12:32:57;;;;;;;7.53;3.45;;;;;;;;;;5038696;28;20045;-78
2023/06/11 12:35:27;;;;;;;5.90;3.33;;;;;;;;;;5068863;28;20107;-79
2023/06/11 12:37:55;;;;;;;6.00;3.60;;;;;;;;;;5033875;28;20064;-77
2023/06/11 12:40:22;;;;;;;6.35;3.30;;;;;;;;;;5027662;28;20051;-77
2023/06/11 12:42:56;;;;;;;4.43;3.40;;;;;;;;;;5029573;28;20129;-79
2023/06/11 12:45:23;;;;;;;5.63;3.13;;;;;;;;;;5027885;28;20107;-76
2023/06/11 12:47:53;;;;;;;6.53;3.10;;;;;;;;;;5029297;28;20053;-77
2023/06/11 12:50:24;;;;;;;6.78;3.67;;;;;;;;;;5028438;28;20045;-78
2023/06/11 12:52:54;;;;;;;4.55;3.30;;;;;;;;;;5033623;28;20053;-77
2023/06/11 12:55:22;;;;;;;4.47;3.17;;;;;;;;;;5028432;28;20524;-77
2023/06/11 12:57:50;;;;;;;6.45;3.38;;;;;;;;;;5026718;28;20065;-79
2023/06/11 13:00:16;;;;;;;6.53;3.70;;;;;;;;;;5027305;28;20064;-77
2023/06/11 13:02:43;;;;;;;5.15;3.20;;;;;;;;;;5035340;28;20200;-79
2023/06/11 13:05:11;;;;;;;9.00;3.78;;;;;;;;;;5032353;28;20111;-79
2023/06/11 13:07:38;;;;;;;5.85;3.58;;;;;;;;;;5033569;28;20128;-79
2023/06/11 13:10:04;;;;;;;6.25;3.53;;;;;;;;;;5016887;28;20080;-79
2023/06/11 13:12:31;;;;;;;8.90;3.40;;;;;;;;;;5032268;28;20060;-79
2023/06/11 13:14:58;;;;;;;6.95;3.42;;;;;;;;;;5033471;28;20048;-80
2023/06/11 13:17:25;;;;;;;6.22;3.40;;;;;;;;;;5034052;28;20057;-80
2023/06/11 13:19:54;;;;;;;4.68;3.15;;;;;;;;;;5034687;28;20056;-78
2023/06/11 13:22:21;;;;;;;7.70;3.13;;;;;;;;;;5030530;28;20052;-77
2023/06/11 13:24:47;;;;;;;6.43;3.47;;;;;;;;;;5032257;28;20042;-79
2023/06/11 13:27:14;;;;;;;6.32;3.35;;;;;;;;;;5033531;28;20049;-80
2023/06/11 13:29:40;;;;;;;4.43;3.03;;;;;;;;;;5035538;28;20069;-79
2023/06/11 13:32:07;;;;;;;6.63;3.25;;;;;;;;;;5048365;28;20521;-79
2023/06/11 13:34:34;;;;;;;6.85;3.40;;;;;;;;;;5059158;28;20045;-79
2023/06/11 13:37:02;;;;;;;10.40;3.53;;;;;;;;;;5064732;28;20116;-78
2023/06/11 13:39:29;;;;;;;8.10;3.45;;;;;;;;;;5064243;28;21026;-80
2023/06/11 13:41:55;;;;;;;6.70;3.40;;;;;;;;;;5059974;28;20075;-78
2023/06/11 13:44:23;;;;;;;7.32;3.60;;;;;;;;;;5063622;28;20052;-79
2023/06/11 13:46:51;;;;;;;5.32;3.30;;;;;;;;;;5061778;28;20120;-80
2023/06/11 13:49:17;;;;;;;4.85;3.38;;;;;;;;;;5060866;28;20053;-79
2023/06/11 13:51:44;;;;;;;7.75;3.72;;;;;;;;;;5059009;28;20109;-79
2023/06/11 13:54:11;;;;;;;6.78;3.35;;;;;;;;;;5039128;28;20107;-79
2023/06/11 13:56:38;;;;;;;4.45;3.28;;;;;;;;;;5034770;28;20057;-79
2023/06/11 13:59:04;;;;;;;6.53;3.08;;;;;;;;;;5015142;28;20057;-80
2023/06/11 14:01:31;;;;;;;3.90;3.00;;;;;;;;;;5034663;28;20041;-80
2023/06/11 14:03:58;;;;;;;5.38;3.28;;;;;;;;;;5036388;28;20041;-77
2023/06/11 14:06:24;;;;;;;7.32;4.00;;;;;;;;;;5031158;28;20105;-79
2023/06/11 14:08:51;;;;;;;7.85;3.70;;;;;;;;;;5029162;28;20073;-79
2023/06/11 14:11:18;;;;;;;5.50;3.58;;;;;;;;;;5026973;28;20529;-79
2023/06/11 14:13:45;;;;;;;8.32;3.20;;;;;;;;;;5028711;28;20053;-80
2023/06/11 14:16:11;;;;;;;15.73;3.42;;;;;;;;;;5032054;28;20057;-78
2023/06/11 14:18:38;;;;;;;9.00;3.50;;;;;;;;;;5033003;28;20123;-79
2023/06/11 14:21:05;;;;;;;6.38;3.42;;;;;;;;;;5032728;28;20046;-78
2023/06/11 14:23:31;;;;;;;4.25;3.40;;;;;;;;;;5025600;28;20041;-79
2023/06/11 14:25:58;;;;;;;5.30;3.75;;;;;;;;;;5032010;28;20068;-79
2023/06/11 14:28:24;;;;;;;7.10;3.60;;;;;;;;;;5053222;28;20045;-79
2023/06/11 14:30:52;;;;;;;5.57;3.40;;;;;;;;;;5051586;28;20398;-79
2023/06/11 14:33:19;;;;;;;6.45;3.35;;;;;;;;;;5027126;28;20049;-80
2023/06/11 14:35:46;;;;;;;5.90;4.07;;;;;;;;;;5069569;28;20532;-78
2023/06/11 14:38:13;;;;;;;7.40;3.65;;;;;;;;;;5030177;28;20073;-79
2023/06/11 14:40:40;;;;;;;7.72;3.70;;;;;;;;;;5030433;28;20037;-78